sensor_id;sensor_type;location;lat;lon;timestamp;P1;durP1;ratioP1;P2;durP2;ratioP2
19280;SDS011;9774;52.034;5.342;2023-02-15T00:01:33;18.35;;;11.13;;
19280;SDS011;9774;52.034;5.342;2023-02-15T00:04:03;16.67;;;11.25;;
19280;SDS011;9774;52.034;5.342;2023-02-15T00:06:33;16.23;;;11.68;;
19280;SDS011;9774;52.034;5.342;2023-02-15T00:09:00;13.90;;;9.82;;
19280;SDS011;9774;52.034;5.342;2023-02-15T00:11:28;17.17;;;10.85;;
19280;SDS011;9774;52.034;5.342;2023-02-15T00:14:16;14.82;;;10.50;;
19280;SDS011;9774;52.034;5.342;2023-02-15T00:16:44;16.10;;;11.07;;
19280;SDS011;9774;52.034;5.342;2023-02-15T00:19:12;16.23;;;9.77;;
19280;SDS011;9774;52.034;5.342;2023-02-15T00:21:42;15.23;;;10.18;;
19280;SDS011;9774;52.034;5.342;2023-02-15T00:24:10;15.27;;;10.80;;
19280;SDS011;9774;52.034;5.342;2023-02-15T00:26:39;15.88;;;10.02;;
19280;SDS011;9774;52.034;5.342;2023-02-15T00:29:07;14.98;;;11.13;;
19280;SDS011;9774;52.034;5.342;2023-02-15T00:31:36;14.52;;;10.23;;
19280;SDS011;9774;52.034;5.342;2023-02-15T00:34:05;15.63;;;10.70;;
19280;SDS011;9774;52.034;5.342;2023-02-15T00:36:36;14.40;;;10.02;;
19280;SDS011;9774;52.034;5.342;2023-02-15T00:39:05;14.25;;;9.70;;
19280;SDS011;9774;52.034;5.342;2023-02-15T00:41:33;19.13;;;11.05;;
19280;SDS011;9774;52.034;5.342;2023-02-15T00:44:00;16.27;;;10.88;;
19280;SDS011;9774;52.034;5.342;2023-02-15T00:46:28;14.77;;;10.98;;
19280;SDS011;9774;52.034;5.342;2023-02-15T00:48:55;15.07;;;10.05;;
19280;SDS011;9774;52.034;5.342;2023-02-15T00:51:23;17.45;;;10.45;;
19280;SDS011;9774;52.034;5.342;2023-02-15T00:53:51;15.07;;;11.15;;
19280;SDS011;9774;52.034;5.342;2023-02-15T00:56:20;15.02;;;10.60;;
19280;SDS011;9774;52.034;5.342;2023-02-15T00:58:47;14.50;;;10.10;;
19280;SDS011;9774;52.034;5.342;2023-02-15T01:01:16;16.48;;;10.30;;
19280;SDS011;9774;52.034;5.342;2023-02-15T01:03:44;14.45;;;9.32;;
19280;SDS011;9774;52.034;5.342;2023-02-15T01:06:12;13.95;;;9.70;;
19280;SDS011;9774;52.034;5.342;2023-02-15T01:08:40;14.13;;;9.50;;
19280;SDS011;9774;52.034;5.342;2023-02-15T01:11:08;14.77;;;9.45;;
19280;SDS011;9774;52.034;5.342;2023-02-15T01:13:38;17.33;;;10.82;;
19280;SDS011;9774;52.034;5.342;2023-02-15T01:16:06;17.40;;;11.13;;
19280;SDS011;9774;52.034;5.342;2023-02-15T01:18:34;14.90;;;10.13;;
19280;SDS011;9774;52.034;5.342;2023-02-15T01:21:08;15.02;;;9.85;;
19280;SDS011;9774;52.034;5.342;2023-02-15T01:23:36;15.25;;;10.45;;
19280;SDS011;9774;52.034;5.342;2023-02-15T01:26:03;14.65;;;9.73;;
19280;SDS011;9774;52.034;5.342;2023-02-15T01:28:31;17.13;;;11.15;;
19280;SDS011;9774;52.034;5.342;2023-02-15T01:31:03;19.10;;;10.32;;
19280;SDS011;9774;52.034;5.342;2023-02-15T01:33:32;16.10;;;10.50;;
19280;SDS011;9774;52.034;5.342;2023-02-15T01:36:00;13.93;;;10.18;;
19280;SDS011;9774;52.034;5.342;2023-02-15T01:38:28;15.43;;;9.57;;
19280;SDS011;9774;52.034;5.342;2023-02-15T01:40:56;14.27;;;10.25;;
19280;SDS011;9774;52.034;5.342;2023-02-15T01:43:44;16.30;;;9.98;;
19280;SDS011;9774;52.034;5.342;2023-02-15T01:46:15;14.00;;;9.45;;
19280;SDS011;9774;52.034;5.342;2023-02-15T01:48:44;14.73;;;9.52;;
19280;SDS011;9774;52.034;5.342;2023-02-15T01:51:15;13.93;;;9.80;;
19280;SDS011;9774;52.034;5.342;2023-02-15T01:53:47;14.70;;;9.90;;
19280;SDS011;9774;52.034;5.342;2023-02-15T01:56:19;15.63;;;9.55;;
19280;SDS011;9774;52.034;5.342;2023-02-15T01:58:48;15.23;;;9.98;;
19280;SDS011;9774;52.034;5.342;2023-02-15T02:01:18;12.77;;;9.02;;
19280;SDS011;9774;52.034;5.342;2023-02-15T02:03:49;15.35;;;9.52;;
19280;SDS011;9774;52.034;5.342;2023-02-15T02:06:25;15.27;;;9.35;;
19280;SDS011;9774;52.034;5.342;2023-02-15T02:08:52;17.23;;;9.60;;
19280;SDS011;9774;52.034;5.342;2023-02-15T02:11:20;15.57;;;10.07;;
19280;SDS011;9774;52.034;5.342;2023-02-15T02:13:48;14.27;;;9.93;;
19280;SDS011;9774;52.034;5.342;2023-02-15T02:16:21;15.23;;;10.32;;
19280;SDS011;9774;52.034;5.342;2023-02-15T02:18:59;14.50;;;9.20;;
19280;SDS011;9774;52.034;5.342;2023-02-15T02:25:03;14.43;;;9.18;;
19280;SDS011;9774;52.034;5.342;2023-02-15T02:27:39;15.10;;;9.73;;
19280;SDS011;9774;52.034;5.342;2023-02-15T02:33:26;16.83;;;10.95;;
19280;SDS011;9774;52.034;5.342;2023-02-15T02:36:14;13.18;;;9.07;;
19280;SDS011;9774;52.034;5.342;2023-02-15T02:38:50;13.98;;;9.38;;
19280;SDS011;9774;52.034;5.342;2023-02-15T02:41:31;14.30;;;9.20;;
19280;SDS011;9774;52.034;5.342;2023-02-15T02:44:07;13.93;;;9.80;;
19280;SDS011;9774;52.034;5.342;2023-02-15T02:46:41;15.35;;;10.75;;
19280;SDS011;9774;52.034;5.342;2023-02-15T02:49:16;16.52;;;10.90;;
19280;SDS011;9774;52.034;5.342;2023-02-15T02:51:57;16.45;;;10.32;;
19280;SDS011;9774;52.034;5.342;2023-02-15T02:54:25;15.48;;;10.18;;
19280;SDS011;9774;52.034;5.342;2023-02-15T02:56:54;17.30;;;10.30;;
19280;SDS011;9774;52.034;5.342;2023-02-15T02:59:25;15.57;;;10.70;;
19280;SDS011;9774;52.034;5.342;2023-02-15T03:01:57;17.60;;;9.98;;
19280;SDS011;9774;52.034;5.342;2023-02-15T03:04:31;17.50;;;10.57;;
19280;SDS011;9774;52.034;5.342;2023-02-15T03:07:02;14.27;;;9.75;;
19280;SDS011;9774;52.034;5.342;2023-02-15T03:09:33;14.38;;;10.45;;
19280;SDS011;9774;52.034;5.342;2023-02-15T03:12:07;17.67;;;10.52;;
19280;SDS011;9774;52.034;5.342;2023-02-15T03:14:37;13.98;;;10.18;;
19280;SDS011;9774;52.034;5.342;2023-02-15T03:17:06;18.42;;;9.95;;
19280;SDS011;9774;52.034;5.342;2023-02-15T03:19:37;15.90;;;10.65;;
19280;SDS011;9774;52.034;5.342;2023-02-15T03:22:05;14.77;;;9.55;;
19280;SDS011;9774;52.034;5.342;2023-02-15T03:24:37;14.60;;;9.95;;
19280;SDS011;9774;52.034;5.342;2023-02-15T03:27:10;15.50;;;10.13;;
19280;SDS011;9774;52.034;5.342;2023-02-15T03:29:42;17.27;;;10.65;;
19280;SDS011;9774;52.034;5.342;2023-02-15T03:32:12;16.10;;;10.60;;
19280;SDS011;9774;52.034;5.342;2023-02-15T03:34:42;14.93;;;10.05;;
19280;SDS011;9774;52.034;5.342;2023-02-15T03:37:11;15.27;;;10.30;;
19280;SDS011;9774;52.034;5.342;2023-02-15T03:39:42;14.48;;;9.48;;
19280;SDS011;9774;52.034;5.342;2023-02-15T03:42:16;15.73;;;10.45;;
19280;SDS011;9774;52.034;5.342;2023-02-15T03:44:49;16.67;;;10.48;;
19280;SDS011;9774;52.034;5.342;2023-02-15T03:47:22;14.13;;;9.70;;
19280;SDS011;9774;52.034;5.342;2023-02-15T03:49:57;16.15;;;10.98;;
19280;SDS011;9774;52.034;5.342;2023-02-15T03:52:27;13.27;;;9.25;;
19280;SDS011;9774;52.034;5.342;2023-02-15T03:54:55;14.00;;;9.63;;
19280;SDS011;9774;52.034;5.342;2023-02-15T03:57:23;15.13;;;10.43;;
19280;SDS011;9774;52.034;5.342;2023-02-15T04:00:11;14.05;;;9.25;;
19280;SDS011;9774;52.034;5.342;2023-02-15T04:03:09;13.40;;;9.55;;
19280;SDS011;9774;52.034;5.342;2023-02-15T04:05:51;15.50;;;9.50;;
19280;SDS011;9774;52.034;5.342;2023-02-15T04:08:18;14.95;;;9.93;;
19280;SDS011;9774;52.034;5.342;2023-02-15T04:10:45;14.02;;;9.23;;
19280;SDS011;9774;52.034;5.342;2023-02-15T04:13:17;14.10;;;9.27;;
19280;SDS011;9774;52.034;5.342;2023-02-15T04:15:45;14.25;;;9.57;;
19280;SDS011;9774;52.034;5.342;2023-02-15T04:18:29;13.27;;;8.82;;
19280;SDS011;9774;52.034;5.342;2023-02-15T04:21:16;14.15;;;9.48;;
19280;SDS011;9774;52.034;5.342;2023-02-15T04:24:02;12.75;;;8.35;;
19280;SDS011;9774;52.034;5.342;2023-02-15T04:26:47;15.48;;;9.23;;
19280;SDS011;9774;52.034;5.342;2023-02-15T04:29:17;15.57;;;8.52;;
19280;SDS011;9774;52.034;5.342;2023-02-15T04:31:45;12.63;;;9.20;;
19280;SDS011;9774;52.034;5.342;2023-02-15T04:34:12;12.85;;;9.23;;
19280;SDS011;9774;52.034;5.342;2023-02-15T04:36:41;11.85;;;8.45;;
19280;SDS011;9774;52.034;5.342;2023-02-15T04:39:09;13.27;;;9.07;;
19280;SDS011;9774;52.034;5.342;2023-02-15T04:41:39;14.52;;;9.10;;
19280;SDS011;9774;52.034;5.342;2023-02-15T04:44:07;14.00;;;9.32;;
19280;SDS011;9774;52.034;5.342;2023-02-15T04:46:34;14.68;;;8.82;;
19280;SDS011;9774;52.034;5.342;2023-02-15T04:49:02;14.73;;;9.05;;
19280;SDS011;9774;52.034;5.342;2023-02-15T04:51:30;12.82;;;9.35;;
19280;SDS011;9774;52.034;5.342;2023-02-15T04:53:58;14.52;;;9.57;;
19280;SDS011;9774;52.034;5.342;2023-02-15T04:56:26;15.32;;;9.43;;
19280;SDS011;9774;52.034;5.342;2023-02-15T04:58:55;13.07;;;9.07;;
19280;SDS011;9774;52.034;5.342;2023-02-15T05:01:22;13.07;;;8.65;;
19280;SDS011;9774;52.034;5.342;2023-02-15T05:03:49;14.20;;;9.00;;
19280;SDS011;9774;52.034;5.342;2023-02-15T05:06:16;14.55;;;9.45;;
19280;SDS011;9774;52.034;5.342;2023-02-15T05:08:44;14.55;;;9.38;;
19280;SDS011;9774;52.034;5.342;2023-02-15T05:11:12;15.00;;;9.52;;
19280;SDS011;9774;52.034;5.342;2023-02-15T05:13:40;15.80;;;9.77;;
19280;SDS011;9774;52.034;5.342;2023-02-15T05:16:07;15.27;;;9.52;;
19280;SDS011;9774;52.034;5.342;2023-02-15T05:18:34;18.50;;;10.43;;
19280;SDS011;9774;52.034;5.342;2023-02-15T05:21:02;14.70;;;10.10;;
19280;SDS011;9774;52.034;5.342;2023-02-15T05:23:29;14.27;;;9.40;;
19280;SDS011;9774;52.034;5.342;2023-02-15T05:25:56;14.15;;;9.55;;
19280;SDS011;9774;52.034;5.342;2023-02-15T05:28:43;13.45;;;8.88;;
19280;SDS011;9774;52.034;5.342;2023-02-15T05:31:11;12.70;;;8.82;;
19280;SDS011;9774;52.034;5.342;2023-02-15T05:33:40;15.10;;;8.85;;
19280;SDS011;9774;52.034;5.342;2023-02-15T05:36:07;13.73;;;9.85;;
19280;SDS011;9774;52.034;5.342;2023-02-15T05:38:36;15.23;;;9.48;;
19280;SDS011;9774;52.034;5.342;2023-02-15T05:41:03;12.18;;;8.27;;
19280;SDS011;9774;52.034;5.342;2023-02-15T05:43:31;12.70;;;9.35;;
19280;SDS011;9774;52.034;5.342;2023-02-15T05:46:01;13.43;;;9.35;;
19280;SDS011;9774;52.034;5.342;2023-02-15T05:48:29;15.00;;;9.32;;
19280;SDS011;9774;52.034;5.342;2023-02-15T05:50:57;14.32;;;9.00;;
19280;SDS011;9774;52.034;5.342;2023-02-15T05:53:25;15.10;;;9.45;;
19280;SDS011;9774;52.034;5.342;2023-02-15T05:55:53;12.30;;;9.00;;
19280;SDS011;9774;52.034;5.342;2023-02-15T05:58:24;14.18;;;9.80;;
19280;SDS011;9774;52.034;5.342;2023-02-15T06:00:51;15.95;;;9.45;;
19280;SDS011;9774;52.034;5.342;2023-02-15T06:03:20;15.95;;;9.35;;
19280;SDS011;9774;52.034;5.342;2023-02-15T06:05:48;13.32;;;8.85;;
19280;SDS011;9774;52.034;5.342;2023-02-15T06:08:16;14.23;;;9.57;;
19280;SDS011;9774;52.034;5.342;2023-02-15T06:10:44;15.77;;;9.45;;
19280;SDS011;9774;52.034;5.342;2023-02-15T06:13:12;14.60;;;9.20;;
19280;SDS011;9774;52.034;5.342;2023-02-15T06:15:39;15.20;;;9.95;;
19280;SDS011;9774;52.034;5.342;2023-02-15T06:18:06;15.00;;;9.60;;
19280;SDS011;9774;52.034;5.342;2023-02-15T06:20:35;15.57;;;10.30;;
19280;SDS011;9774;52.034;5.342;2023-02-15T06:23:02;15.25;;;8.88;;
19280;SDS011;9774;52.034;5.342;2023-02-15T06:25:30;15.10;;;10.20;;
19280;SDS011;9774;52.034;5.342;2023-02-15T06:27:57;16.55;;;10.20;;
19280;SDS011;9774;52.034;5.342;2023-02-15T06:30:24;18.83;;;9.77;;
19280;SDS011;9774;52.034;5.342;2023-02-15T06:32:52;16.65;;;10.73;;
19280;SDS011;9774;52.034;5.342;2023-02-15T06:35:20;13.63;;;9.32;;
19280;SDS011;9774;52.034;5.342;2023-02-15T06:37:49;14.02;;;9.45;;
19280;SDS011;9774;52.034;5.342;2023-02-15T06:40:16;15.07;;;9.93;;
19280;SDS011;9774;52.034;5.342;2023-02-15T06:42:43;15.57;;;9.85;;
19280;SDS011;9774;52.034;5.342;2023-02-15T06:45:11;13.27;;;9.70;;
19280;SDS011;9774;52.034;5.342;2023-02-15T06:47:38;15.95;;;9.35;;
19280;SDS011;9774;52.034;5.342;2023-02-15T06:50:06;13.75;;;9.52;;
19280;SDS011;9774;52.034;5.342;2023-02-15T06:52:35;14.82;;;9.93;;
19280;SDS011;9774;52.034;5.342;2023-02-15T06:55:04;16.33;;;9.95;;
19280;SDS011;9774;52.034;5.342;2023-02-15T06:57:31;13.88;;;9.27;;
19280;SDS011;9774;52.034;5.342;2023-02-15T06:59:59;25.17;;;17.17;;
19280;SDS011;9774;52.034;5.342;2023-02-15T07:02:26;21.48;;;13.93;;
19280;SDS011;9774;52.034;5.342;2023-02-15T07:04:53;16.80;;;11.65;;
19280;SDS011;9774;52.034;5.342;2023-02-15T07:07:21;16.15;;;10.38;;
19280;SDS011;9774;52.034;5.342;2023-02-15T07:09:48;18.77;;;10.98;;
19280;SDS011;9774;52.034;5.342;2023-02-15T07:12:17;16.42;;;10.20;;
19280;SDS011;9774;52.034;5.342;2023-02-15T07:15:02;14.88;;;9.88;;
19280;SDS011;9774;52.034;5.342;2023-02-15T07:17:31;14.82;;;10.57;;
19280;SDS011;9774;52.034;5.342;2023-02-15T07:19:58;16.10;;;10.10;;
19280;SDS011;9774;52.034;5.342;2023-02-15T07:22:25;14.77;;;10.02;;
19280;SDS011;9774;52.034;5.342;2023-02-15T07:24:52;15.73;;;10.15;;
19280;SDS011;9774;52.034;5.342;2023-02-15T07:27:21;15.40;;;10.90;;
19280;SDS011;9774;52.034;5.342;2023-02-15T07:29:49;14.98;;;10.55;;
19280;SDS011;9774;52.034;5.342;2023-02-15T07:32:16;15.35;;;10.23;;
19280;SDS011;9774;52.034;5.342;2023-02-15T07:34:43;17.98;;;11.52;;
19280;SDS011;9774;52.034;5.342;2023-02-15T07:37:10;14.85;;;10.63;;
19280;SDS011;9774;52.034;5.342;2023-02-15T07:39:38;17.73;;;11.30;;
19280;SDS011;9774;52.034;5.342;2023-02-15T07:42:05;15.95;;;10.98;;
19280;SDS011;9774;52.034;5.342;2023-02-15T07:44:34;18.60;;;11.18;;
19280;SDS011;9774;52.034;5.342;2023-02-15T07:47:01;17.63;;;11.18;;
19280;SDS011;9774;52.034;5.342;2023-02-15T07:49:28;16.58;;;10.93;;
19280;SDS011;9774;52.034;5.342;2023-02-15T07:51:55;17.60;;;10.95;;
19280;SDS011;9774;52.034;5.342;2023-02-15T07:54:23;19.85;;;11.00;;
19280;SDS011;9774;52.034;5.342;2023-02-15T07:56:50;16.05;;;10.95;;
19280;SDS011;9774;52.034;5.342;2023-02-15T07:59:17;16.90;;;11.13;;
19280;SDS011;9774;52.034;5.342;2023-02-15T08:01:46;17.67;;;11.10;;
19280;SDS011;9774;52.034;5.342;2023-02-15T08:04:13;17.25;;;11.15;;
19280;SDS011;9774;52.034;5.342;2023-02-15T08:06:41;18.30;;;11.27;;
19280;SDS011;9774;52.034;5.342;2023-02-15T08:09:08;17.00;;;11.57;;
19280;SDS011;9774;52.034;5.342;2023-02-15T08:11:37;20.48;;;11.93;;
19280;SDS011;9774;52.034;5.342;2023-02-15T08:14:07;17.55;;;11.18;;
19280;SDS011;9774;52.034;5.342;2023-02-15T08:16:35;17.42;;;11.27;;
19280;SDS011;9774;52.034;5.342;2023-02-15T08:19:06;17.77;;;12.13;;
19280;SDS011;9774;52.034;5.342;2023-02-15T08:21:35;17.85;;;12.07;;
19280;SDS011;9774;52.034;5.342;2023-02-15T08:24:04;21.00;;;12.35;;
19280;SDS011;9774;52.034;5.342;2023-02-15T08:26:32;17.80;;;11.93;;
19280;SDS011;9774;52.034;5.342;2023-02-15T08:29:00;20.17;;;12.60;;
19280;SDS011;9774;52.034;5.342;2023-02-15T08:31:28;20.23;;;12.13;;
19280;SDS011;9774;52.034;5.342;2023-02-15T08:33:56;17.38;;;11.73;;
19280;SDS011;9774;52.034;5.342;2023-02-15T08:36:26;17.67;;;11.50;;
19280;SDS011;9774;52.034;5.342;2023-02-15T08:38:54;19.10;;;12.38;;
19280;SDS011;9774;52.034;5.342;2023-02-15T08:41:24;19.35;;;12.27;;
19280;SDS011;9774;52.034;5.342;2023-02-15T08:43:53;19.15;;;11.55;;
19280;SDS011;9774;52.034;5.342;2023-02-15T08:46:23;21.20;;;12.30;;
19280;SDS011;9774;52.034;5.342;2023-02-15T08:48:51;22.60;;;13.18;;
19280;SDS011;9774;52.034;5.342;2023-02-15T08:51:20;20.58;;;13.02;;
19280;SDS011;9774;52.034;5.342;2023-02-15T08:53:50;21.60;;;13.75;;
19280;SDS011;9774;52.034;5.342;2023-02-15T08:56:20;21.20;;;13.63;;
19280;SDS011;9774;52.034;5.342;2023-02-15T08:58:49;21.63;;;13.43;;
19280;SDS011;9774;52.034;5.342;2023-02-15T09:01:17;19.65;;;12.73;;
19280;SDS011;9774;52.034;5.342;2023-02-15T09:03:47;20.55;;;13.50;;
19280;SDS011;9774;52.034;5.342;2023-02-15T09:06:18;21.00;;;13.85;;
19280;SDS011;9774;52.034;5.342;2023-02-15T09:08:45;21.00;;;13.25;;
19280;SDS011;9774;52.034;5.342;2023-02-15T09:11:15;22.05;;;13.93;;
19280;SDS011;9774;52.034;5.342;2023-02-15T09:13:47;17.30;;;12.00;;
19280;SDS011;9774;52.034;5.342;2023-02-15T09:16:16;19.95;;;12.60;;
19280;SDS011;9774;52.034;5.342;2023-02-15T09:18:43;18.48;;;13.07;;
19280;SDS011;9774;52.034;5.342;2023-02-15T09:21:12;20.30;;;13.23;;
19280;SDS011;9774;52.034;5.342;2023-02-15T09:23:40;19.42;;;13.35;;
19280;SDS011;9774;52.034;5.342;2023-02-15T09:26:09;24.73;;;14.48;;
19280;SDS011;9774;52.034;5.342;2023-02-15T09:28:39;21.67;;;13.90;;
19280;SDS011;9774;52.034;5.342;2023-02-15T09:31:07;22.30;;;14.95;;
19280;SDS011;9774;52.034;5.342;2023-02-15T09:33:36;20.15;;;13.75;;
19280;SDS011;9774;52.034;5.342;2023-02-15T09:36:05;20.40;;;13.85;;
19280;SDS011;9774;52.034;5.342;2023-02-15T09:38:40;21.25;;;13.98;;
19280;SDS011;9774;52.034;5.342;2023-02-15T09:41:17;22.95;;;14.27;;
19280;SDS011;9774;52.034;5.342;2023-02-15T09:44:00;22.52;;;14.70;;
19280;SDS011;9774;52.034;5.342;2023-02-15T09:46:36;20.77;;;13.77;;
19280;SDS011;9774;52.034;5.342;2023-02-15T09:49:17;21.40;;;14.98;;
19280;SDS011;9774;52.034;5.342;2023-02-15T09:51:57;21.10;;;13.65;;
19280;SDS011;9774;52.034;5.342;2023-02-15T09:54:38;22.00;;;14.55;;
19280;SDS011;9774;52.034;5.342;2023-02-15T09:57:19;20.73;;;13.70;;
19280;SDS011;9774;52.034;5.342;2023-02-15T09:59:56;26.13;;;16.08;;
19280;SDS011;9774;52.034;5.342;2023-02-15T10:02:35;21.35;;;15.23;;
19280;SDS011;9774;52.034;5.342;2023-02-15T10:05:20;19.92;;;13.40;;
19280;SDS011;9774;52.034;5.342;2023-02-15T10:11:07;25.95;;;14.95;;
19280;SDS011;9774;52.034;5.342;2023-02-15T10:13:59;23.75;;;15.02;;
19280;SDS011;9774;52.034;5.342;2023-02-15T10:16:38;24.60;;;14.68;;
19280;SDS011;9774;52.034;5.342;2023-02-15T10:19:12;25.55;;;16.23;;
19280;SDS011;9774;52.034;5.342;2023-02-15T10:21:53;24.10;;;16.05;;
19280;SDS011;9774;52.034;5.342;2023-02-15T10:24:34;25.58;;;16.40;;
19280;SDS011;9774;52.034;5.342;2023-02-15T10:27:11;21.85;;;14.70;;
19280;SDS011;9774;52.034;5.342;2023-02-15T10:29:41;25.48;;;15.52;;
19280;SDS011;9774;52.034;5.342;2023-02-15T10:32:19;23.27;;;15.45;;
19280;SDS011;9774;52.034;5.342;2023-02-15T10:34:50;23.48;;;15.05;;
19280;SDS011;9774;52.034;5.342;2023-02-15T10:37:24;24.98;;;14.68;;
19280;SDS011;9774;52.034;5.342;2023-02-15T10:40:15;19.50;;;14.32;;
19280;SDS011;9774;52.034;5.342;2023-02-15T10:42:59;21.77;;;13.95;;
19280;SDS011;9774;52.034;5.342;2023-02-15T10:45:40;24.90;;;14.38;;
19280;SDS011;9774;52.034;5.342;2023-02-15T10:51:19;21.80;;;13.68;;
19280;SDS011;9774;52.034;5.342;2023-02-15T10:53:57;22.33;;;13.93;;
19280;SDS011;9774;52.034;5.342;2023-02-15T10:56:32;23.83;;;15.70;;
19280;SDS011;9774;52.034;5.342;2023-02-15T10:59:09;24.13;;;14.82;;
19280;SDS011;9774;52.034;5.342;2023-02-15T11:01:47;20.10;;;14.18;;
19280;SDS011;9774;52.034;5.342;2023-02-15T11:07:13;21.42;;;13.98;;
19280;SDS011;9774;52.034;5.342;2023-02-15T11:09:45;20.83;;;14.85;;
19280;SDS011;9774;52.034;5.342;2023-02-15T11:12:16;20.42;;;15.32;;
19280;SDS011;9774;52.034;5.342;2023-02-15T11:14:46;23.33;;;15.18;;
19280;SDS011;9774;52.034;5.342;2023-02-15T11:17:19;22.50;;;14.35;;
19280;SDS011;9774;52.034;5.342;2023-02-15T11:19:54;22.25;;;14.43;;
19280;SDS011;9774;52.034;5.342;2023-02-15T11:22:26;23.90;;;15.93;;
19280;SDS011;9774;52.034;5.342;2023-02-15T11:24:53;25.02;;;15.25;;
19280;SDS011;9774;52.034;5.342;2023-02-15T11:27:25;21.58;;;15.05;;
19280;SDS011;9774;52.034;5.342;2023-02-15T11:29:58;21.55;;;14.70;;
19280;SDS011;9774;52.034;5.342;2023-02-15T11:32:28;21.88;;;15.10;;
19280;SDS011;9774;52.034;5.342;2023-02-15T11:35:00;22.55;;;15.77;;
19280;SDS011;9774;52.034;5.342;2023-02-15T11:37:32;23.58;;;15.00;;
19280;SDS011;9774;52.034;5.342;2023-02-15T11:40:02;26.40;;;16.17;;
19280;SDS011;9774;52.034;5.342;2023-02-15T11:42:47;19.52;;;13.63;;
19280;SDS011;9774;52.034;5.342;2023-02-15T11:45:19;21.77;;;14.93;;
19280;SDS011;9774;52.034;5.342;2023-02-15T11:47:51;19.98;;;14.48;;
19280;SDS011;9774;52.034;5.342;2023-02-15T11:50:21;22.63;;;14.77;;
19280;SDS011;9774;52.034;5.342;2023-02-15T11:52:51;20.02;;;14.57;;
19280;SDS011;9774;52.034;5.342;2023-02-15T11:55:22;23.02;;;15.68;;
19280;SDS011;9774;52.034;5.342;2023-02-15T11:57:52;23.00;;;15.27;;
19280;SDS011;9774;52.034;5.342;2023-02-15T12:00:26;23.50;;;14.95;;
19280;SDS011;9774;52.034;5.342;2023-02-15T12:03:01;23.70;;;15.07;;
19280;SDS011;9774;52.034;5.342;2023-02-15T12:05:35;24.30;;;16.05;;
19280;SDS011;9774;52.034;5.342;2023-02-15T12:08:09;24.27;;;15.80;;
19280;SDS011;9774;52.034;5.342;2023-02-15T12:10:43;24.83;;;17.00;;
19280;SDS011;9774;52.034;5.342;2023-02-15T12:13:19;24.08;;;15.27;;
19280;SDS011;9774;52.034;5.342;2023-02-15T12:15:48;25.08;;;15.48;;
19280;SDS011;9774;52.034;5.342;2023-02-15T12:18:18;25.15;;;15.68;;
19280;SDS011;9774;52.034;5.342;2023-02-15T12:21:02;23.98;;;15.80;;
19280;SDS011;9774;52.034;5.342;2023-02-15T12:23:33;22.92;;;15.32;;
19280;SDS011;9774;52.034;5.342;2023-02-15T12:26:01;24.67;;;16.25;;
19280;SDS011;9774;52.034;5.342;2023-02-15T12:28:31;27.10;;;17.50;;
19280;SDS011;9774;52.034;5.342;2023-02-15T12:31:00;27.25;;;16.23;;
19280;SDS011;9774;52.034;5.342;2023-02-15T12:33:33;24.17;;;16.30;;
19280;SDS011;9774;52.034;5.342;2023-02-15T12:36:04;24.73;;;15.93;;
19280;SDS011;9774;52.034;5.342;2023-02-15T12:38:38;25.95;;;16.77;;
19280;SDS011;9774;52.034;5.342;2023-02-15T12:41:21;22.42;;;16.15;;
19280;SDS011;9774;52.034;5.342;2023-02-15T12:44:02;23.48;;;16.10;;
19280;SDS011;9774;52.034;5.342;2023-02-15T12:46:32;23.08;;;15.68;;
19280;SDS011;9774;52.034;5.342;2023-02-15T12:49:06;22.58;;;15.93;;
19280;SDS011;9774;52.034;5.342;2023-02-15T12:51:45;24.95;;;16.25;;
19280;SDS011;9774;52.034;5.342;2023-02-15T12:54:31;24.42;;;16.35;;
19280;SDS011;9774;52.034;5.342;2023-02-15T12:57:17;21.33;;;15.52;;
19280;SDS011;9774;52.034;5.342;2023-02-15T12:59:50;24.70;;;16.65;;
19280;SDS011;9774;52.034;5.342;2023-02-15T13:02:20;24.40;;;15.88;;
19280;SDS011;9774;52.034;5.342;2023-02-15T13:04:53;22.42;;;16.08;;
19280;SDS011;9774;52.034;5.342;2023-02-15T13:07:29;23.10;;;16.38;;
19280;SDS011;9774;52.034;5.342;2023-02-15T13:09:58;24.08;;;16.63;;
19280;SDS011;9774;52.034;5.342;2023-02-15T13:12:26;20.85;;;15.25;;
19280;SDS011;9774;52.034;5.342;2023-02-15T13:14:57;23.08;;;16.42;;
19280;SDS011;9774;52.034;5.342;2023-02-15T13:17:29;27.40;;;17.65;;
19280;SDS011;9774;52.034;5.342;2023-02-15T13:20:00;24.30;;;16.42;;
19280;SDS011;9774;52.034;5.342;2023-02-15T13:22:37;24.25;;;16.83;;
19280;SDS011;9774;52.034;5.342;2023-02-15T13:25:10;23.42;;;15.00;;
19280;SDS011;9774;52.034;5.342;2023-02-15T13:27:41;22.15;;;15.50;;
19280;SDS011;9774;52.034;5.342;2023-02-15T13:30:23;23.20;;;16.10;;
19280;SDS011;9774;52.034;5.342;2023-02-15T13:32:52;24.65;;;16.92;;
19280;SDS011;9774;52.034;5.342;2023-02-15T13:35:22;26.10;;;17.35;;
19280;SDS011;9774;52.034;5.342;2023-02-15T13:40:44;21.80;;;16.33;;
19280;SDS011;9774;52.034;5.342;2023-02-15T13:46:11;25.10;;;16.45;;
19280;SDS011;9774;52.034;5.342;2023-02-15T13:48:51;24.65;;;15.88;;
19280;SDS011;9774;52.034;5.342;2023-02-15T13:51:27;22.75;;;16.08;;
19280;SDS011;9774;52.034;5.342;2023-02-15T13:57:06;22.55;;;16.40;;
19280;SDS011;9774;52.034;5.342;2023-02-15T13:59:51;24.60;;;16.20;;
19280;SDS011;9774;52.034;5.342;2023-02-15T14:02:30;23.00;;;16.05;;
19280;SDS011;9774;52.034;5.342;2023-02-15T14:05:15;23.15;;;16.83;;
19280;SDS011;9774;52.034;5.342;2023-02-15T14:07:56;22.55;;;16.23;;
19280;SDS011;9774;52.034;5.342;2023-02-15T14:13:42;23.65;;;15.85;;
19280;SDS011;9774;52.034;5.342;2023-02-15T14:16:20;27.38;;;15.85;;
19280;SDS011;9774;52.034;5.342;2023-02-15T14:18:59;21.23;;;14.23;;
19280;SDS011;9774;52.034;5.342;2023-02-15T14:21:37;23.52;;;14.95;;
19280;SDS011;9774;52.034;5.342;2023-02-15T14:24:17;24.15;;;15.73;;
19280;SDS011;9774;52.034;5.342;2023-02-15T14:26:56;20.35;;;15.25;;
19280;SDS011;9774;52.034;5.342;2023-02-15T14:29:36;25.23;;;16.30;;
19280;SDS011;9774;52.034;5.342;2023-02-15T14:32:13;20.85;;;15.40;;
19280;SDS011;9774;52.034;5.342;2023-02-15T14:34:48;24.05;;;16.40;;
19280;SDS011;9774;52.034;5.342;2023-02-15T14:37:19;21.63;;;15.63;;
19280;SDS011;9774;52.034;5.342;2023-02-15T14:39:55;22.92;;;15.90;;
19280;SDS011;9774;52.034;5.342;2023-02-15T14:42:48;23.17;;;15.70;;
19280;SDS011;9774;52.034;5.342;2023-02-15T14:45:21;24.02;;;16.55;;
19280;SDS011;9774;52.034;5.342;2023-02-15T14:47:55;25.33;;;15.85;;
19280;SDS011;9774;52.034;5.342;2023-02-15T14:50:40;21.35;;;15.27;;
19280;SDS011;9774;52.034;5.342;2023-02-15T14:53:16;19.95;;;14.48;;
19280;SDS011;9774;52.034;5.342;2023-02-15T14:56:16;22.48;;;15.30;;
19280;SDS011;9774;52.034;5.342;2023-02-15T14:58:56;23.58;;;15.27;;
19280;SDS011;9774;52.034;5.342;2023-02-15T15:01:27;22.08;;;14.73;;
19280;SDS011;9774;52.034;5.342;2023-02-15T15:03:57;24.67;;;16.48;;
19280;SDS011;9774;52.034;5.342;2023-02-15T15:06:27;19.55;;;13.52;;
19280;SDS011;9774;52.034;5.342;2023-02-15T15:08:58;21.17;;;14.98;;
19280;SDS011;9774;52.034;5.342;2023-02-15T15:11:37;33.75;;;16.42;;
19280;SDS011;9774;52.034;5.342;2023-02-15T15:14:08;22.98;;;14.13;;
19280;SDS011;9774;52.034;5.342;2023-02-15T15:22:30;21.58;;;15.00;;
19280;SDS011;9774;52.034;5.342;2023-02-15T15:24:59;26.05;;;15.30;;
19280;SDS011;9774;52.034;5.342;2023-02-15T15:27:39;23.05;;;15.65;;
19280;SDS011;9774;52.034;5.342;2023-02-15T15:36:43;20.33;;;14.85;;
19280;SDS011;9774;52.034;5.342;2023-02-15T15:42:50;21.65;;;13.88;;
19280;SDS011;9774;52.034;5.342;2023-02-15T15:45:32;25.92;;;15.70;;
19280;SDS011;9774;52.034;5.342;2023-02-15T15:48:20;20.33;;;14.32;;
19280;SDS011;9774;52.034;5.342;2023-02-15T15:50:56;22.75;;;15.25;;